Time;durP1;ratioP1;P1;durP2;ratioP2;P2;SDS_P1;SDS_P2;PMS_P1;PMS_P2;Temp;Humidity;BMP_temperature;BMP_pressure;BME280_temperature;BME280_humidity;BME280_pressure;Samples;Min_cycle;Max_cycle;Signal;HPM_P1;HPM_P2
2023/05/01 00:01:07;;;;;;;10.68;2.97;;;;;;;;;;10325685;28;20045;-51
2023/05/01 00:06:07;;;;;;;7.63;2.70;;;;;;;;;;10324988;28;20549;-50
2023/05/01 00:11:11;;;;;;;13.15;3.42;;;;;;;;;;10315244;28;20167;-49
2023/05/01 00:16:12;;;;;;;6.05;2.35;;;;;;;;;;10323557;28;20034;-59
2023/05/01 00:21:13;;;;;;;8.80;3.00;;;;;;;;;;10319403;28;20057;-53
2023/05/01 00:26:13;;;;;;;5.03;2.60;;;;;;;;;;10326188;28;20035;-53
2023/05/01 00:31:14;;;;;;;5.88;2.53;;;;;;;;;;10326076;28;20038;-52
2023/05/01 00:36:14;;;;;;;3.85;2.40;;;;;;;;;;10324050;28;20462;-55
2023/05/01 00:41:15;;;;;;;4.80;2.55;;;;;;;;;;10324761;28;20398;-51
2023/05/01 00:46:17;;;;;;;4.95;2.60;;;;;;;;;;10324275;28;20073;-50
2023/05/01 00:51:18;;;;;;;5.43;2.83;;;;;;;;;;10324816;28;20027;-50
2023/05/01 00:56:20;;;;;;;9.05;2.83;;;;;;;;;;10324099;28;20034;-56
2023/05/01 01:01:20;;;;;;;4.50;2.60;;;;;;;;;;10306594;28;20232;-52
2023/05/01 01:06:54;;;;;;;6.68;2.85;;;;;;;;;;10324451;28;20027;-51
2023/05/01 01:12:30;;;;;;;5.97;3.08;;;;;;;;;;10301401;28;20053;-51
2023/05/01 01:17:59;;;;;;;4.57;2.47;;;;;;;;;;10312221;28;20035;-52
2023/05/01 01:23:15;;;;;;;4.30;2.38;;;;;;;;;;10322570;28;20054;-50
2023/05/01 01:28:51;;;;;;;4.18;2.53;;;;;;;;;;10324063;28;20270;-50
2023/05/01 01:34:18;;;;;;;4.90;2.53;;;;;;;;;;10299824;28;20490;-60
2023/05/01 01:39:37;;;;;;;4.80;2.55;;;;;;;;;;10307566;28;20664;-58
2023/05/01 01:44:47;;;;;;;5.70;2.75;;;;;;;;;;10323317;28;20474;-49
2023/05/01 01:49:51;;;;;;;5.72;3.08;;;;;;;;;;10299636;28;20041;-52
2023/05/01 01:54:59;;;;;;;5.30;2.85;;;;;;;;;;10314674;28;20038;-59
2023/05/01 02:00:00;;;;;;;4.83;2.67;;;;;;;;;;10323015;28;20037;-56
2023/05/01 02:05:01;;;;;;;9.02;2.45;;;;;;;;;;10305678;28;20468;-49
2023/05/01 02:10:04;;;;;;;3.17;2.35;;;;;;;;;;10307059;28;20437;-50
2023/05/01 02:15:06;;;;;;;4.13;2.40;;;;;;;;;;10312857;28;20070;-57
2023/05/01 02:20:11;;;;;;;4.05;2.35;;;;;;;;;;10326490;28;20030;-53
2023/05/01 02:25:13;;;;;;;7.78;2.50;;;;;;;;;;10327774;28;20034;-50
2023/05/01 02:30:14;;;;;;;5.43;2.90;;;;;;;;;;10331441;28;20030;-49
2023/05/01 02:35:15;;;;;;;3.15;2.45;;;;;;;;;;10329016;28;20038;-49
2023/05/01 02:40:17;;;;;;;4.45;2.70;;;;;;;;;;10331042;28;20128;-58
2023/05/01 02:45:23;;;;;;;4.15;2.60;;;;;;;;;;10308570;28;20254;-49
2023/05/01 02:50:25;;;;;;;4.57;2.63;;;;;;;;;;10296633;28;20053;-53
2023/05/01 02:55:26;;;;;;;2.90;2.38;;;;;;;;;;10312263;28;20038;-51
2023/05/01 03:00:27;;;;;;;4.95;2.75;;;;;;;;;;10326709;28;20025;-52
2023/05/01 03:05:28;;;;;;;4.05;2.30;;;;;;;;;;10329068;28;20414;-52
2023/05/01 03:10:28;;;;;;;7.03;2.67;;;;;;;;;;10329713;28;20030;-50
2023/05/01 03:15:29;;;;;;;2.92;2.20;;;;;;;;;;10325971;28;20041;-51
2023/05/01 03:20:30;;;;;;;3.85;2.40;;;;;;;;;;10327928;28;20037;-53
2023/05/01 03:25:31;;;;;;;4.15;2.60;;;;;;;;;;10326920;28;20030;-49
2023/05/01 03:30:34;;;;;;;2.88;2.40;;;;;;;;;;10327621;28;20077;-52
2023/05/01 03:35:34;;;;;;;4.72;2.40;;;;;;;;;;10326717;28;20085;-49
2023/05/01 03:40:35;;;;;;;4.22;2.67;;;;;;;;;;10326975;28;20557;-57
2023/05/01 03:45:35;;;;;;;4.88;2.83;;;;;;;;;;10326160;28;20101;-49
2023/05/01 03:50:36;;;;;;;5.78;2.60;;;;;;;;;;10326599;28;20363;-49
2023/05/01 03:55:36;;;;;;;2.97;2.42;;;;;;;;;;10327144;28;20027;-52
2023/05/01 04:00:37;;;;;;;4.05;2.67;;;;;;;;;;10326887;28;20026;-59
2023/05/01 04:05:38;;;;;;;3.35;2.45;;;;;;;;;;10321296;28;20041;-49
2023/05/01 04:10:39;;;;;;;3.78;2.33;;;;;;;;;;10317289;28;21352;-49
2023/05/01 04:15:44;;;;;;;2.28;2.05;;;;;;;;;;10325075;28;20909;-49
2023/05/01 04:20:45;;;;;;;5.25;2.58;;;;;;;;;;10326172;28;20061;-50
2023/05/01 04:25:46;;;;;;;2.67;2.22;;;;;;;;;;10326281;28;20026;-51
2023/05/01 04:30:46;;;;;;;2.40;2.20;;;;;;;;;;10315607;28;20034;-52
2023/05/01 04:35:47;;;;;;;4.50;2.45;;;;;;;;;;10303349;28;20041;-51
2023/05/01 04:40:48;;;;;;;4.03;2.38;;;;;;;;;;10324484;28;20042;-49
2023/05/01 04:45:49;;;;;;;3.92;2.50;;;;;;;;;;10323751;28;20072;-53
2023/05/01 04:50:50;;;;;;;3.42;2.80;;;;;;;;;;10324111;28;20030;-52
2023/05/01 04:55:51;;;;;;;2.70;2.50;;;;;;;;;;10324617;28;20038;-49
2023/05/01 05:00:51;;;;;;;2.58;2.38;;;;;;;;;;10324159;28;20030;-50
2023/05/01 05:05:52;;;;;;;2.17;1.98;;;;;;;;;;10312276;28;20037;-51
2023/05/01 05:11:00;;;;;;;3.22;2.67;;;;;;;;;;10335804;28;20026;-51
2023/05/01 05:16:00;;;;;;;4.93;2.83;;;;;;;;;;10324343;28;20027;-51
2023/05/01 05:21:05;;;;;;;2.40;2.13;;;;;;;;;;10323311;28;20102;-51
2023/05/01 05:26:06;;;;;;;3.63;2.40;;;;;;;;;;10323469;28;20022;-55
2023/05/01 05:31:06;;;;;;;5.28;2.30;;;;;;;;;;10323459;28;20039;-56
2023/05/01 05:36:07;;;;;;;2.33;2.08;;;;;;;;;;10323559;28;20038;-55
2023/05/01 05:41:08;;;;;;;3.95;2.60;;;;;;;;;;10323524;28;20043;-50
2023/05/01 05:46:08;;;;;;;6.15;2.55;;;;;;;;;;10325802;28;20050;-52
2023/05/01 05:51:09;;;;;;;2.40;2.20;;;;;;;;;;10323532;28;20027;-55
2023/05/01 05:56:10;;;;;;;2.75;2.50;;;;;;;;;;10327602;28;20037;-49
2023/05/01 06:01:10;;;;;;;3.25;2.30;;;;;;;;;;10331296;28;20026;-49
2023/05/01 06:06:11;;;;;;;3.28;2.25;;;;;;;;;;10331144;28;20035;-51
2023/05/01 06:11:11;;;;;;;2.92;2.38;;;;;;;;;;10330877;28;20062;-50
2023/05/01 06:16:12;;;;;;;3.13;2.42;;;;;;;;;;10329714;28;20061;-51
2023/05/01 06:21:13;;;;;;;3.40;2.38;;;;;;;;;;10329622;28;20014;-49
2023/05/01 06:26:13;;;;;;;4.35;2.35;;;;;;;;;;10330222;28;20034;-50
2023/05/01 06:31:14;;;;;;;2.60;2.20;;;;;;;;;;10327775;28;20706;-56
2023/05/01 06:36:14;;;;;;;2.25;2.05;;;;;;;;;;10329950;28;20030;-48
2023/05/01 06:41:16;;;;;;;2.65;2.17;;;;;;;;;;10329377;28;20030;-59
2023/05/01 06:46:16;;;;;;;4.57;2.63;;;;;;;;;;10330055;28;20030;-51
2023/05/01 06:51:17;;;;;;;2.92;2.63;;;;;;;;;;10339766;28;20433;-51
2023/05/01 06:56:17;;;;;;;2.72;2.10;;;;;;;;;;10330870;28;20041;-49
2023/05/01 07:01:18;;;;;;;4.30;2.85;;;;;;;;;;10329476;28;20027;-52
2023/05/01 07:06:18;;;;;;;8.95;2.55;;;;;;;;;;10327484;28;20026;-58
2023/05/01 07:11:19;;;;;;;5.68;2.05;;;;;;;;;;10328272;28;20038;-58
2023/05/01 07:16:20;;;;;;;8.25;2.42;;;;;;;;;;10329136;28;20034;-58
2023/05/01 07:21:20;;;;;;;5.75;2.10;;;;;;;;;;10324981;28;20026;-58
2023/05/01 07:26:21;;;;;;;5.18;2.50;;;;;;;;;;10327823;28;20038;-58
2023/05/01 07:31:22;;;;;;;3.53;2.55;;;;;;;;;;10325738;28;20032;-48
2023/05/01 07:36:22;;;;;;;2.83;2.45;;;;;;;;;;10327767;28;20034;-52
2023/05/01 07:41:24;;;;;;;3.45;2.45;;;;;;;;;;10318282;28;20043;-59
2023/05/01 07:46:25;;;;;;;3.40;2.38;;;;;;;;;;10307939;28;20031;-59
2023/05/01 07:51:26;;;;;;;3.70;2.67;;;;;;;;;;10327625;28;20031;-54
2023/05/01 07:56:26;;;;;;;4.35;2.50;;;;;;;;;;10327706;28;20034;-49
2023/05/01 08:01:27;;;;;;;4.50;2.30;;;;;;;;;;10327710;28;20030;-49
2023/05/01 08:06:28;;;;;;;5.18;2.63;;;;;;;;;;10325902;28;20026;-53
2023/05/01 08:11:29;;;;;;;3.38;2.80;;;;;;;;;;10304487;28;20031;-51
2023/05/01 08:16:30;;;;;;;4.15;2.35;;;;;;;;;;10324014;28;20046;-57
2023/05/01 08:21:32;;;;;;;3.42;2.28;;;;;;;;;;10308745;28;20056;-53
2023/05/01 08:26:32;;;;;;;13.90;2.67;;;;;;;;;;10318567;28;20036;-49
2023/05/01 08:31:36;;;;;;;17.33;2.50;;;;;;;;;;10308141;28;20343;-50
2023/05/01 08:36:37;;;;;;;15.43;3.50;;;;;;;;;;10317989;28;20129;-52
2023/05/01 08:41:38;;;;;;;17.98;4.40;;;;;;;;;;10327008;28;20034;-49
2023/05/01 08:47:13;;;;;;;15.68;3.60;;;;;;;;;;10307504;28;20026;-49
2023/05/01 08:52:14;;;;;;;11.50;2.85;;;;;;;;;;10292521;28;20038;-49
2023/05/01 08:57:15;;;;;;;7.05;3.05;;;;;;;;;;10324767;28;20026;-50
2023/05/01 09:02:17;;;;;;;9.18;2.90;;;;;;;;;;10314467;28;20575;-49
2023/05/01 09:07:18;;;;;;;8.48;2.92;;;;;;;;;;10325270;28;20030;-49
2023/05/01 09:12:25;;;;;;;9.10;3.65;;;;;;;;;;10304209;28;20041;-48
2023/05/01 09:17:26;;;;;;;7.05;2.65;;;;;;;;;;10340210;28;20036;-58
2023/05/01 09:22:26;;;;;;;7.55;2.90;;;;;;;;;;10336493;28;20037;-59
2023/05/01 09:27:27;;;;;;;6.82;2.88;;;;;;;;;;10307765;28;20043;-58
2023/05/01 09:32:28;;;;;;;9.55;2.90;;;;;;;;;;10329989;28;20030;-58
2023/05/01 09:37:29;;;;;;;6.15;2.40;;;;;;;;;;10323177;28;20034;-54
2023/05/01 09:42:32;;;;;;;6.45;2.67;;;;;;;;;;10321891;28;20046;-52
2023/05/01 09:47:33;;;;;;;6.80;3.03;;;;;;;;;;10339871;28;20366;-59
2023/05/01 09:52:33;;;;;;;6.82;2.83;;;;;;;;;;10311287;28;20035;-59
2023/05/01 09:57:37;;;;;;;6.95;3.28;;;;;;;;;;10335387;28;20046;-49
2023/05/01 10:02:38;;;;;;;6.65;2.72;;;;;;;;;;10294614;28;20084;-49
2023/05/01 10:07:56;;;;;;;8.77;2.90;;;;;;;;;;10332314;28;20505;-51
2023/05/01 10:13:16;;;;;;;6.70;2.47;;;;;;;;;;10304257;28;20143;-58
2023/05/01 10:18:17;;;;;;;3.08;2.20;;;;;;;;;;10323293;28;20112;-52
2023/05/01 10:23:18;;;;;;;3.05;2.40;;;;;;;;;;10341908;28;20069;-49
2023/05/01 10:28:24;;;;;;;8.02;2.50;;;;;;;;;;10316898;28;20058;-50
2023/05/01 10:33:25;;;;;;;4.00;2.45;;;;;;;;;;10323644;28;20027;-53
2023/05/01 10:38:34;;;;;;;4.20;2.65;;;;;;;;;;10306015;28;20446;-52
2023/05/01 10:43:34;;;;;;;3.42;2.78;;;;;;;;;;10311595;28;20121;-58
2023/05/01 10:48:38;;;;;;;6.65;2.35;;;;;;;;;;10312476;28;20041;-52
2023/05/01 10:53:44;;;;;;;4.13;2.75;;;;;;;;;;10329002;28;20038;-52
2023/05/01 10:58:50;;;;;;;6.43;2.72;;;;;;;;;;10329674;28;20125;-57
2023/05/01 11:03:50;;;;;;;4.18;2.25;;;;;;;;;;10329462;28;20018;-58
2023/05/01 11:08:52;;;;;;;2.47;2.10;;;;;;;;;;10321292;28;20240;-58
2023/05/01 11:14:03;;;;;;;3.38;2.47;;;;;;;;;;10329879;28;20034;-59
2023/05/01 11:19:04;;;;;;;5.35;2.78;;;;;;;;;;10324823;28;20117;-58
2023/05/01 11:24:06;;;;;;;2.63;2.40;;;;;;;;;;10327544;28;20036;-59
2023/05/01 11:29:10;;;;;;;3.33;2.05;;;;;;;;;;10330015;28;20045;-58
2023/05/01 11:34:12;;;;;;;3.92;2.17;;;;;;;;;;10328077;28;20097;-59
2023/05/01 11:39:18;;;;;;;2.33;2.10;;;;;;;;;;10324717;28;20122;-59
2023/05/01 11:44:19;;;;;;;5.47;2.63;;;;;;;;;;10337653;28;20040;-48
2023/05/01 11:49:28;;;;;;;4.35;2.58;;;;;;;;;;10327921;28;20383;-55
2023/05/01 11:54:29;;;;;;;2.60;2.28;;;;;;;;;;10324646;28;20137;-50
2023/05/01 11:59:30;;;;;;;4.53;2.60;;;;;;;;;;10325415;28;20504;-52
2023/05/01 12:04:31;;;;;;;4.93;2.45;;;;;;;;;;10326781;28;20030;-49
2023/05/01 12:09:32;;;;;;;4.55;2.53;;;;;;;;;;10321114;28;20389;-58
2023/05/01 12:14:33;;;;;;;2.20;2.00;;;;;;;;;;10321465;28;20056;-56
2023/05/01 12:19:44;;;;;;;2.58;2.38;;;;;;;;;;10300137;28;20026;-49
2023/05/01 12:24:52;;;;;;;2.40;2.20;;;;;;;;;;10322357;28;20081;-60
2023/05/01 12:29:54;;;;;;;3.13;2.53;;;;;;;;;;10327526;28;20026;-50
2023/05/01 12:34:55;;;;;;;2.17;2.00;;;;;;;;;;10303140;28;20129;-54
2023/05/01 12:39:56;;;;;;;2.83;2.22;;;;;;;;;;10330012;28;20085;-58
2023/05/01 12:45:00;;;;;;;3.30;2.75;;;;;;;;;;10332415;28;20041;-56
2023/05/01 12:50:06;;;;;;;2.80;2.10;;;;;;;;;;10349249;28;20062;-58
2023/05/01 12:55:07;;;;;;;4.47;2.20;;;;;;;;;;10323505;28;20034;-59
2023/05/01 13:00:09;;;;;;;2.63;2.20;;;;;;;;;;10324573;28;20038;-58
2023/05/01 13:05:10;;;;;;;2.95;2.53;;;;;;;;;;10323897;28;20038;-52
2023/05/01 13:10:13;;;;;;;2.88;2.30;;;;;;;;;;10313463;28;20038;-52
2023/05/01 13:15:21;;;;;;;3.13;2.33;;;;;;;;;;10324447;28;20506;-56
2023/05/01 13:20:26;;;;;;;2.80;2.40;;;;;;;;;;10326104;28;20063;-55
2023/05/01 13:25:27;;;;;;;2.53;2.33;;;;;;;;;;10325160;28;20035;-55
2023/05/01 13:30:32;;;;;;;2.63;2.22;;;;;;;;;;10323946;28;20467;-58
2023/05/01 13:35:34;;;;;;;3.63;2.45;;;;;;;;;;10324177;28;20462;-58
2023/05/01 13:40:35;;;;;;;2.72;2.40;;;;;;;;;;10333786;28;20049;-55
2023/05/01 13:45:36;;;;;;;3.72;2.40;;;;;;;;;;10327275;28;20035;-58
2023/05/01 13:50:39;;;;;;;2.60;2.40;;;;;;;;;;10324128;28;20029;-55
2023/05/01 13:55:41;;;;;;;4.07;2.53;;;;;;;;;;10322871;28;20423;-53
2023/05/01 14:00:44;;;;;;;3.05;2.75;;;;;;;;;;10308677;28;20039;-55
2023/05/01 14:05:46;;;;;;;2.58;2.38;;;;;;;;;;10322923;28;20034;-47
2023/05/01 14:10:47;;;;;;;3.63;2.65;;;;;;;;;;10306565;28;20491;-51
2023/05/01 14:15:48;;;;;;;3.00;2.70;;;;;;;;;;10326471;28;20026;-58
2023/05/01 14:20:49;;;;;;;2.95;2.70;;;;;;;;;;10331415;28;20537;-58
2023/05/01 14:25:50;;;;;;;2.55;2.35;;;;;;;;;;10332274;28;20274;-57
2023/05/01 14:30:53;;;;;;;5.03;2.70;;;;;;;;;;10323777;28;20062;-60
2023/05/01 14:35:54;;;;;;;2.78;2.50;;;;;;;;;;10330565;28;20034;-58
2023/05/01 14:40:55;;;;;;;3.65;2.55;;;;;;;;;;10328223;28;20132;-59
2023/05/01 14:45:55;;;;;;;3.65;2.60;;;;;;;;;;10331225;28;20068;-58
2023/05/01 14:50:58;;;;;;;2.60;2.40;;;;;;;;;;10331600;28;20169;-59
2023/05/01 14:55:58;;;;;;;2.83;2.40;;;;;;;;;;10329292;28;20058;-58
2023/05/01 15:01:00;;;;;;;2.58;2.38;;;;;;;;;;10336439;28;20105;-59
2023/05/01 15:06:02;;;;;;;2.85;2.50;;;;;;;;;;10329541;28;20493;-58
2023/05/01 15:11:03;;;;;;;3.13;2.53;;;;;;;;;;10329211;28;20076;-58
2023/05/01 15:16:04;;;;;;;3.33;2.40;;;;;;;;;;10329243;28;20038;-59
2023/05/01 15:21:05;;;;;;;2.92;2.60;;;;;;;;;;10322825;28;20022;-57
2023/05/01 15:26:06;;;;;;;2.42;2.22;;;;;;;;;;10325290;28;20034;-57
2023/05/01 15:31:07;;;;;;;4.30;2.50;;;;;;;;;;10323880;28;20474;-55
2023/05/01 15:36:07;;;;;;;2.88;2.53;;;;;;;;;;10325525;28;20478;-59
2023/05/01 15:41:08;;;;;;;3.10;2.38;;;;;;;;;;10327253;28;20046;-59
2023/05/01 15:46:09;;;;;;;2.50;2.30;;;;;;;;;;10327635;28;20034;-59
2023/05/01 15:51:09;;;;;;;2.45;2.25;;;;;;;;;;10319177;28;20084;-58
2023/05/01 15:56:10;;;;;;;3.83;2.30;;;;;;;;;;10324091;28;20061;-59
2023/05/01 16:01:11;;;;;;;3.85;2.30;;;;;;;;;;10315703;28;20038;-58
2023/05/01 16:06:15;;;;;;;2.50;2.30;;;;;;;;;;10307385;28;20035;-59
2023/05/01 16:11:15;;;;;;;2.58;2.35;;;;;;;;;;10307328;28;20026;-58
2023/05/01 16:16:25;;;;;;;3.63;2.50;;;;;;;;;;10321898;28;20030;-51
2023/05/01 16:21:27;;;;;;;2.80;2.35;;;;;;;;;;10325364;28;20026;-55
2023/05/01 16:26:28;;;;;;;2.70;2.50;;;;;;;;;;10325277;28;20031;-53
2023/05/01 16:31:37;;;;;;;2.30;2.10;;;;;;;;;;10326833;28;20121;-50
2023/05/01 16:36:43;;;;;;;2.75;2.20;;;;;;;;;;10327233;28;20050;-54
2023/05/01 16:41:49;;;;;;;3.53;2.05;;;;;;;;;;10325184;28;20034;-57
2023/05/01 16:46:55;;;;;;;2.58;2.10;;;;;;;;;;10325194;28;20038;-54
2023/05/01 16:51:57;;;;;;;2.35;2.17;;;;;;;;;;10324744;28;20066;-53
2023/05/01 16:56:58;;;;;;;2.47;2.25;;;;;;;;;;10325888;28;20041;-56
2023/05/01 17:01:58;;;;;;;2.45;2.15;;;;;;;;;;10324398;28;20337;-57
2023/05/01 17:06:59;;;;;;;3.22;2.30;;;;;;;;;;10321457;28;20038;-54
2023/05/01 17:12:02;;;;;;;2.38;2.17;;;;;;;;;;10305162;28;20040;-54
2023/05/01 17:17:02;;;;;;;2.40;2.20;;;;;;;;;;10320437;28;20042;-53
2023/05/01 17:22:04;;;;;;;3.28;2.40;;;;;;;;;;10320479;28;20060;-59
2023/05/01 17:27:05;;;;;;;2.67;2.20;;;;;;;;;;10321489;28;20057;-56
2023/05/01 17:32:05;;;;;;;8.43;2.30;;;;;;;;;;10322632;28;20054;-55
2023/05/01 17:37:07;;;;;;;6.07;2.30;;;;;;;;;;10322025;28;20034;-59
2023/05/01 17:42:08;;;;;;;11.98;2.33;;;;;;;;;;10323620;28;20069;-57
2023/05/01 17:47:09;;;;;;;10.23;2.50;;;;;;;;;;10323738;28;20037;-54
2023/05/01 17:52:11;;;;;;;2.42;2.17;;;;;;;;;;10329707;28;20023;-53
2023/05/01 17:57:11;;;;;;;2.67;2.35;;;;;;;;;;10325360;28;20030;-55
2023/05/01 18:02:12;;;;;;;10.05;2.30;;;;;;;;;;10332057;28;20049;-58
2023/05/01 18:07:13;;;;;;;3.30;2.40;;;;;;;;;;10328119;28;20034;-56
2023/05/01 18:12:13;;;;;;;4.22;2.47;;;;;;;;;;10328684;28;20069;-55
2023/05/01 18:17:14;;;;;;;4.90;2.55;;;;;;;;;;10331671;28;20045;-57
2023/05/01 18:22:15;;;;;;;3.80;2.60;;;;;;;;;;10326674;28;20038;-57
2023/05/01 18:27:16;;;;;;;3.78;2.72;;;;;;;;;;10330241;28;20410;-56
2023/05/01 18:32:16;;;;;;;11.23;2.90;;;;;;;;;;10330845;28;20130;-57
2023/05/01 18:37:17;;;;;;;7.60;3.55;;;;;;;;;;10330377;28;20034;-54
2023/05/01 18:42:18;;;;;;;6.47;3.50;;;;;;;;;;10331065;28;20038;-54
2023/05/01 18:47:18;;;;;;;6.65;3.58;;;;;;;;;;10330840;28;20026;-55
2023/05/01 18:52:20;;;;;;;7.80;3.13;;;;;;;;;;10312847;28;20030;-57
2023/05/01 18:57:21;;;;;;;4.97;3.63;;;;;;;;;;10331238;28;20038;-56
2023/05/01 19:02:22;;;;;;;7.43;3.10;;;;;;;;;;10323082;28;20437;-57
2023/05/01 19:07:23;;;;;;;6.07;3.47;;;;;;;;;;10328428;28;20086;-54
2023/05/01 19:12:23;;;;;;;8.85;3.42;;;;;;;;;;10316563;28;20026;-54
2023/05/01 19:17:24;;;;;;;7.82;3.22;;;;;;;;;;10331953;28;20486;-54
2023/05/01 19:22:25;;;;;;;5.00;3.15;;;;;;;;;;10328950;28;20502;-56
2023/05/01 19:27:25;;;;;;;4.13;3.30;;;;;;;;;;10328078;28;20026;-52
2023/05/01 19:32:29;;;;;;;5.15;3.00;;;;;;;;;;10328233;28;20034;-53
2023/05/01 19:37:30;;;;;;;9.25;2.67;;;;;;;;;;10330078;28;20031;-56
2023/05/01 19:42:30;;;;;;;10.32;3.65;;;;;;;;;;10329368;28;20027;-52
2023/05/01 19:47:31;;;;;;;9.35;3.28;;;;;;;;;;10321427;28;20038;-53
2023/05/01 19:52:32;;;;;;;10.45;3.30;;;;;;;;;;10323272;28;20027;-52
2023/05/01 19:57:32;;;;;;;9.60;3.53;;;;;;;;;;10325742;28;20038;-54
2023/05/01 20:02:33;;;;;;;13.90;3.13;;;;;;;;;;10316086;28;20080;-56
2023/05/01 20:07:34;;;;;;;9.98;3.42;;;;;;;;;;10327048;28;20101;-51
2023/05/01 20:12:34;;;;;;;6.55;3.17;;;;;;;;;;10315754;28;20274;-52
2023/05/01 20:17:35;;;;;;;4.00;2.90;;;;;;;;;;10327758;28;20042;-54
2023/05/01 20:22:35;;;;;;;5.93;3.30;;;;;;;;;;10319524;28;20031;-54
2023/05/01 20:27:38;;;;;;;7.53;3.50;;;;;;;;;;10322495;28;20076;-57
2023/05/01 20:32:42;;;;;;;21.15;4.75;;;;;;;;;;10320560;28;20129;-60
2023/05/01 20:37:43;;;;;;;19.80;4.05;;;;;;;;;;10310181;28;20050;-60
2023/05/01 20:42:43;;;;;;;14.32;4.07;;;;;;;;;;10324342;28;20034;-60
2023/05/01 20:47:44;;;;;;;8.82;4.00;;;;;;;;;;10312946;28;20061;-59
2023/05/01 20:52:44;;;;;;;12.77;3.90;;;;;;;;;;10314166;28;20041;-59
2023/05/01 20:57:45;;;;;;;19.90;4.10;;;;;;;;;;10300888;28;21033;-59
2023/05/01 21:02:46;;;;;;;24.45;4.40;;;;;;;;;;10314675;28;20030;-59
2023/05/01 21:07:47;;;;;;;12.25;4.13;;;;;;;;;;10318358;28;20437;-56
2023/05/01 21:12:48;;;;;;;16.23;4.40;;;;;;;;;;10330014;28;20018;-55
2023/05/01 21:17:49;;;;;;;14.18;4.00;;;;;;;;;;10342387;28;20045;-59
2023/05/01 21:22:50;;;;;;;19.38;3.60;;;;;;;;;;10348371;28;20030;-59
2023/05/01 21:27:51;;;;;;;19.40;4.03;;;;;;;;;;10337920;28;20045;-61
2023/05/01 21:32:51;;;;;;;7.25;3.63;;;;;;;;;;10346174;28;20030;-58
2023/05/01 21:37:52;;;;;;;7.43;3.13;;;;;;;;;;10330562;28;20209;-58
2023/05/01 21:42:53;;;;;;;13.93;3.55;;;;;;;;;;10350437;28;20493;-58
2023/05/01 21:47:55;;;;;;;14.75;3.90;;;;;;;;;;10344059;28;20037;-57
2023/05/01 21:52:55;;;;;;;16.27;3.85;;;;;;;;;;10328196;28;20066;-59
2023/05/01 21:57:57;;;;;;;11.68;3.28;;;;;;;;;;10327671;28;20437;-60
2023/05/01 22:02:58;;;;;;;12.70;3.30;;;;;;;;;;10334278;28;20032;-62
2023/05/01 22:07:59;;;;;;;10.25;3.47;;;;;;;;;;10323013;28;20049;-59
2023/05/01 22:12:59;;;;;;;6.95;3.08;;;;;;;;;;10331754;28;20033;-54
2023/05/01 22:18:00;;;;;;;8.25;3.38;;;;;;;;;;10319820;28;20037;-54
2023/05/01 22:23:00;;;;;;;16.65;3.50;;;;;;;;;;10335335;28;20049;-57
2023/05/01 22:28:03;;;;;;;7.80;3.17;;;;;;;;;;10335989;28;20097;-58
2023/05/01 22:33:03;;;;;;;5.35;2.75;;;;;;;;;;10354849;28;20035;-57
2023/05/01 22:38:04;;;;;;;7.43;3.28;;;;;;;;;;10328658;28;20050;-58
2023/05/01 22:43:05;;;;;;;6.60;2.80;;;;;;;;;;10326068;28;20081;-57
2023/05/01 22:48:05;;;;;;;9.38;3.10;;;;;;;;;;10323063;28;20430;-60
2023/05/01 22:53:06;;;;;;;5.88;2.60;;;;;;;;;;10329922;28;20026;-59
2023/05/01 22:58:06;;;;;;;5.70;2.70;;;;;;;;;;10327428;28;20058;-59
2023/05/01 23:03:08;;;;;;;5.55;3.22;;;;;;;;;;10328101;28;20370;-57
2023/05/01 23:08:09;;;;;;;5.97;2.85;;;;;;;;;;10312136;28;20466;-60
2023/05/01 23:13:18;;;;;;;4.50;2.45;;;;;;;;;;10331630;28;20092;-57
2023/05/01 23:18:31;;;;;;;5.72;2.92;;;;;;;;;;10328943;28;20479;-58
2023/05/01 23:23:34;;;;;;;5.55;3.15;;;;;;;;;;10329580;28;20031;-59
2023/05/01 23:28:41;;;;;;;7.75;2.65;;;;;;;;;;10340609;28;20035;-57
2023/05/01 23:33:42;;;;;;;18.10;2.80;;;;;;;;;;10329117;28;20029;-59
2023/05/01 23:38:43;;;;;;;7.93;3.13;;;;;;;;;;10302456;28;20086;-59
2023/05/01 23:43:46;;;;;;;5.05;2.58;;;;;;;;;;10321995;28;20459;-58
2023/05/01 23:48:47;;;;;;;4.60;2.45;;;;;;;;;;10323872;28;20036;-58
2023/05/01 23:53:48;;;;;;;10.00;2.85;;;;;;;;;;10327466;28;20497;-57
2023/05/01 23:58:48;;;;;;;4.75;2.53;;;;;;;;;;10327861;28;20426;-57
